createdAt,value
2017-09-07T00:03:38.024Z,15.20
2017-09-07T00:06:05.548Z,14.50
2017-09-07T00:11:03.080Z,14.70
2017-09-07T00:13:31.720Z,14.80
2017-09-07T00:15:59.232Z,14.80
2017-09-07T00:18:27.896Z,14.50
2017-09-07T00:20:56.543Z,14.50
2017-09-07T00:35:48.382Z,14.40
2017-09-07T00:38:15.928Z,14.60
2017-09-07T00:40:43.455Z,14.20
2017-09-07T00:43:10.990Z,14.20
2017-09-07T00:45:38.504Z,14.10
2017-09-07T00:48:06.038Z,14.60
2017-09-07T00:50:33.541Z,14.30
2017-09-07T00:53:01.074Z,14.40
2017-09-07T00:55:28.593Z,14.10
2017-09-07T00:57:56.886Z,14.20
2017-09-07T01:00:26.303Z,14.10
2017-09-07T01:02:53.824Z,14.10
2017-09-07T01:05:21.333Z,14.20
2017-09-07T01:07:50.004Z,14.10
2017-09-07T01:10:17.508Z,14.10
2017-09-07T01:12:45.019Z,14.00
2017-09-07T01:15:15.244Z,14.10
2017-09-07T01:17:43.880Z,13.90
2017-09-07T01:20:12.542Z,14.00
2017-09-07T01:22:41.179Z,13.90
2017-09-07T01:25:12.444Z,13.70
2017-09-07T01:27:39.944Z,13.60
2017-09-07T01:30:07.473Z,13.60
2017-09-07T01:32:36.116Z,13.70
2017-09-07T01:35:03.641Z,13.70
2017-09-07T01:37:31.148Z,13.50
2017-09-07T01:39:59.803Z,13.60
2017-09-07T01:42:27.308Z,13.50
2017-09-07T01:44:54.845Z,13.70
2017-09-07T01:47:24.243Z,13.60
2017-09-07T01:49:51.768Z,13.60
2017-09-07T01:52:19.268Z,13.80
2017-09-07T01:54:47.557Z,13.70
2017-09-07T01:57:15.075Z,13.70
2017-09-07T01:59:42.582Z,13.20
2017-09-07T02:02:10.105Z,13.30
2017-09-07T02:04:37.618Z,13.40
2017-09-07T02:07:05.144Z,13.60
2017-09-07T02:09:32.648Z,13.40
2017-09-07T02:12:00.165Z,13.20
2017-09-07T02:14:27.667Z,13.20
2017-09-07T02:16:55.187Z,13.40
2017-09-07T02:19:23.456Z,13.30
2017-09-07T02:21:50.980Z,13.30
2017-09-07T02:24:18.488Z,13.60
2017-09-07T02:26:47.948Z,13.50
2017-09-07T02:29:15.466Z,13.40
2017-09-07T02:31:42.991Z,13.10
2017-09-07T02:34:11.278Z,13.20
2017-09-07T02:36:40.595Z,13.50
2017-09-07T02:39:08.104Z,13.50
2017-09-07T02:41:36.769Z,13.60
2017-09-07T02:44:04.275Z,13.50
2017-09-07T02:46:35.447Z,13.40
2017-09-07T02:49:02.978Z,13.30
2017-09-07T02:51:35.295Z,13.70
2017-09-07T02:54:02.809Z,13.60
2017-09-07T02:56:31.452Z,13.20
2017-09-07T02:58:58.974Z,13.20
2017-09-07T03:01:26.480Z,13.30
2017-09-07T03:03:54.011Z,13.00
2017-09-07T03:06:21.515Z,13.40
2017-09-07T03:08:49.727Z,13.50
2017-09-07T03:11:17.246Z,13.20
2017-09-07T03:13:44.770Z,13.30
2017-09-07T03:16:12.277Z,13.30
2017-09-07T03:18:39.799Z,13.30
2017-09-07T03:21:09.148Z,13.20
2017-09-07T03:23:36.676Z,13.20
2017-09-07T03:26:06.124Z,13.30
2017-09-07T03:28:33.647Z,13.30
2017-09-07T03:31:01.156Z,13.50
2017-09-07T03:33:28.682Z,13.40
2017-09-07T03:35:56.188Z,13.20
2017-09-07T03:38:24.856Z,13.30
2017-09-07T03:40:52.374Z,13.30
2017-09-07T03:43:19.892Z,13.50
2017-09-07T03:45:47.392Z,13.00
2017-09-07T03:48:14.912Z,13.20
2017-09-07T03:50:42.425Z,13.20
2017-09-07T03:53:10.712Z,13.20
2017-09-07T03:55:38.979Z,13.50
2017-09-07T03:58:07.650Z,13.20
2017-09-07T04:00:35.163Z,13.10
2017-09-07T04:03:02.679Z,13.00
2017-09-07T04:05:30.195Z,13.00
2017-09-07T04:08:00.604Z,12.90
2017-09-07T04:10:28.119Z,12.90
2017-09-07T04:12:55.662Z,12.80
2017-09-07T04:15:23.168Z,12.80
2017-09-07T04:17:50.681Z,13.00
2017-09-07T04:20:18.213Z,13.00
2017-09-07T04:37:40.119Z,13.10
2017-09-07T04:40:08.177Z,13.00
2017-09-07T04:42:35.687Z,13.20
2017-09-07T04:47:32.051Z,13.20
2017-09-07T04:49:59.572Z,13.10
2017-09-07T04:52:27.081Z,13.10
2017-09-07T04:54:54.616Z,13.40
2017-09-07T04:57:22.162Z,13.50
2017-09-07T04:59:49.683Z,13.50
2017-09-07T05:02:17.192Z,13.50
2017-09-07T05:04:44.721Z,13.40
2017-09-07T05:07:12.343Z,13.20
2017-09-07T05:09:39.868Z,13.50
2017-09-07T05:12:07.390Z,13.70
2017-09-07T05:14:34.952Z,13.50
2017-09-07T05:17:02.456Z,13.50
2017-09-07T05:19:29.964Z,13.40
2017-09-07T05:21:57.519Z,13.80
2017-09-07T05:24:25.030Z,13.30
2017-09-07T05:26:52.581Z,13.60
2017-09-07T05:29:20.083Z,13.60
2017-09-07T05:31:47.619Z,13.70
2017-09-07T05:34:15.136Z,13.50
2017-09-07T05:36:42.659Z,13.50
2017-09-07T05:39:10.176Z,13.70
2017-09-07T05:41:37.702Z,14.10
2017-09-07T05:44:05.988Z,14.40
2017-09-07T05:46:33.521Z,14.20
2017-09-07T05:49:02.162Z,14.50
2017-09-07T05:51:29.684Z,14.20
2017-09-07T05:53:57.960Z,14.10
2017-09-07T05:56:25.493Z,14.30
2017-09-07T05:58:53.000Z,14.30
2017-09-07T06:01:20.537Z,14.30
2017-09-07T06:03:48.049Z,13.80
2017-09-07T06:06:15.581Z,14.30
2017-09-07T06:08:43.085Z,14.30
2017-09-07T06:11:10.630Z,14.00
2017-09-07T06:13:38.139Z,14.30
2017-09-07T06:16:05.659Z,14.20
2017-09-07T06:18:33.163Z,14.40
2017-09-07T06:21:00.685Z,14.30
2017-09-07T06:23:28.191Z,14.80
2017-09-07T06:25:55.741Z,14.60
2017-09-07T06:28:24.017Z,14.80
2017-09-07T06:30:51.532Z,14.60
2017-09-07T06:33:19.051Z,14.90
2017-09-07T06:35:46.565Z,15.00
2017-09-07T06:38:14.096Z,14.50
2017-09-07T06:40:41.626Z,14.60
2017-09-07T06:43:09.152Z,14.70
2017-09-07T06:45:36.673Z,14.30
2017-09-07T06:48:04.199Z,14.90
2017-09-07T06:50:31.711Z,15.00
2017-09-07T06:52:59.238Z,14.90
2017-09-07T06:55:26.765Z,14.90
2017-09-07T06:57:54.300Z,15.20
2017-09-07T07:00:22.959Z,14.70
2017-09-07T07:02:50.490Z,14.70
2017-09-07T07:05:18.004Z,14.30
2017-09-07T07:07:45.538Z,14.50
2017-09-07T07:17:40.777Z,15.70
2017-09-07T07:20:08.279Z,16.80
2017-09-07T07:22:35.801Z,15.80
2017-09-07T07:25:03.308Z,16.20
2017-09-07T07:27:31.972Z,16.40
2017-09-07T07:29:59.499Z,16.40
2017-09-07T07:32:27.030Z,15.50
2017-09-07T07:34:54.554Z,15.90
2017-09-07T07:37:22.110Z,16.00
2017-09-07T07:39:49.611Z,16.60
2017-09-07T07:42:17.112Z,20.10
2017-09-07T07:44:44.636Z,19.50
2017-09-07T07:47:12.141Z,18.30
2017-09-07T07:49:39.664Z,18.20
2017-09-07T07:52:07.168Z,17.90
2017-09-07T07:54:34.687Z,17.90
2017-09-07T07:57:02.201Z,18.80
2017-09-07T07:59:29.725Z,18.30
2017-09-07T08:01:57.232Z,17.60
2017-09-07T08:04:24.756Z,17.50
2017-09-07T08:06:52.271Z,19.10
2017-09-07T08:09:19.796Z,18.60
2017-09-07T08:11:47.305Z,18.20
2017-09-07T08:14:14.825Z,17.50
2017-09-07T08:16:42.340Z,17.30
2017-09-07T08:19:09.864Z,17.50
2017-09-07T08:21:37.379Z,17.20
2017-09-07T08:24:04.940Z,17.20
2017-09-07T08:26:32.455Z,17.70
2017-09-07T08:29:00.005Z,19.30
2017-09-07T08:31:27.595Z,20.00
2017-09-07T08:33:55.886Z,19.50
2017-09-07T08:36:23.428Z,21.50
2017-09-07T08:38:50.935Z,18.80
2017-09-07T08:41:18.476Z,18.00
2017-09-07T08:43:45.988Z,17.90
2017-09-07T08:46:13.520Z,17.70
2017-09-07T08:48:41.024Z,18.40
2017-09-07T08:51:09.322Z,18.10
2017-09-07T08:53:36.835Z,17.60
2017-09-07T08:56:04.364Z,17.70
2017-09-07T08:58:31.884Z,17.80
2017-09-07T09:00:59.408Z,17.70
2017-09-07T09:03:26.912Z,17.70
2017-09-07T09:05:54.435Z,18.10
2017-09-07T09:08:21.950Z,18.10
2017-09-07T09:10:50.241Z,17.80
2017-09-07T09:13:18.865Z,18.20
2017-09-07T09:15:46.396Z,18.30
2017-09-07T09:18:13.903Z,18.00
2017-09-07T09:20:42.197Z,17.50
2017-09-07T09:23:09.708Z,18.50
2017-09-07T09:25:37.228Z,17.90
2017-09-07T09:28:04.738Z,17.10
2017-09-07T09:30:32.249Z,20.10
2017-09-07T09:32:59.772Z,20.20
2017-09-07T09:35:28.055Z,21.20
2017-09-07T09:37:56.345Z,20.00
2017-09-07T09:40:23.863Z,21.00
2017-09-07T09:42:51.480Z,20.30
2017-09-07T09:45:18.988Z,18.30
2017-09-07T09:47:46.512Z,18.30
2017-09-07T09:50:14.016Z,18.50
2017-09-07T09:52:42.318Z,18.20
2017-09-07T09:55:09.837Z,18.30
2017-09-07T09:57:37.366Z,18.00
2017-09-07T10:00:04.884Z,17.90
2017-09-07T10:02:32.424Z,18.00
2017-09-07T10:04:59.933Z,18.00
2017-09-07T10:07:27.494Z,18.10
2017-09-07T10:09:55.009Z,17.70
2017-09-07T10:12:22.547Z,17.80
2017-09-07T10:14:50.059Z,19.30
2017-09-07T10:17:17.600Z,20.10
2017-09-07T10:19:45.103Z,22.40
2017-09-07T10:22:12.604Z,21.10
2017-09-07T10:24:40.128Z,19.10
2017-09-07T10:27:07.636Z,18.50
2017-09-07T10:29:35.933Z,17.50
2017-09-07T10:32:03.438Z,17.50
2017-09-07T10:34:31.067Z,17.70
2017-09-07T10:36:58.576Z,17.40
2017-09-07T10:39:26.113Z,17.70
2017-09-07T10:41:53.638Z,18.10
2017-09-07T10:44:21.156Z,21.20
2017-09-07T10:46:48.666Z,22.60
2017-09-07T10:49:16.223Z,22.70
2017-09-07T10:51:43.737Z,20.80
2017-09-07T10:54:11.256Z,19.10
2017-09-07T10:56:38.773Z,19.00
2017-09-07T10:59:06.299Z,18.00
2017-09-07T11:01:33.809Z,17.60
2017-09-07T11:04:01.342Z,17.20
2017-09-07T11:06:28.847Z,17.60
2017-09-07T11:08:56.370Z,18.60
2017-09-07T11:11:23.872Z,19.20
2017-09-07T11:13:51.392Z,19.50
2017-09-07T11:16:18.977Z,19.70
2017-09-07T11:18:46.504Z,19.40
2017-09-07T11:21:14.024Z,19.00
2017-09-07T11:23:41.558Z,18.60
2017-09-07T11:26:09.065Z,18.30
2017-09-07T11:28:36.588Z,17.80
2017-09-07T11:31:04.091Z,18.00
2017-09-07T11:33:31.604Z,18.60
2017-09-07T11:35:59.120Z,18.10
2017-09-07T11:38:26.622Z,18.30
2017-09-07T11:40:54.144Z,17.90
2017-09-07T11:43:21.648Z,17.30
2017-09-07T11:45:49.180Z,16.80
2017-09-07T11:48:16.696Z,16.90
2017-09-07T11:50:44.223Z,17.00
2017-09-07T11:53:11.730Z,17.10
2017-09-07T11:55:39.258Z,17.50
2017-09-07T11:58:06.768Z,17.70
2017-09-07T12:00:34.309Z,18.00
2017-09-07T12:03:01.826Z,17.70
2017-09-07T12:05:29.363Z,17.80
2017-09-07T12:07:56.868Z,17.80
2017-09-07T12:10:24.401Z,17.80
2017-09-07T12:12:51.919Z,17.70
2017-09-07T12:15:19.462Z,17.70
2017-09-07T12:32:40.180Z,18.00
2017-09-07T12:35:07.779Z,18.50
2017-09-07T12:37:35.303Z,17.80
2017-09-07T12:40:03.586Z,17.80
2017-09-07T12:42:31.122Z,17.60
2017-09-07T12:44:59.409Z,17.90
2017-09-07T12:47:28.121Z,17.70
2017-09-07T12:49:55.639Z,17.70
2017-09-07T12:52:23.174Z,17.60
2017-09-07T12:54:50.680Z,18.50
2017-09-07T12:57:18.204Z,18.60
2017-09-07T12:59:45.739Z,18.10
2017-09-07T13:02:13.257Z,18.60
2017-09-07T13:04:40.760Z,18.50
2017-09-07T13:07:08.281Z,18.60
2017-09-07T13:12:04.674Z,18.40
2017-09-07T13:14:32.187Z,18.50
2017-09-07T13:17:00.848Z,18.50
2017-09-07T13:27:24.786Z,17.30
2017-09-07T13:29:52.304Z,17.20
2017-09-07T13:32:19.838Z,17.40
2017-09-07T13:34:47.344Z,17.70
2017-09-07T13:37:14.901Z,17.90
2017-09-07T13:42:11.292Z,17.60
2017-09-07T13:44:39.564Z,17.80
2017-09-07T13:47:07.886Z,18.10
2017-09-07T13:49:35.406Z,17.70
2017-09-07T13:52:02.940Z,17.70
2017-09-07T13:54:30.445Z,17.20
2017-09-07T13:56:57.992Z,17.00
2017-09-07T13:59:26.262Z,17.00
2017-09-07T14:01:53.858Z,17.00
2017-09-07T14:04:21.380Z,17.50
2017-09-07T14:06:49.660Z,18.80
2017-09-07T14:09:17.184Z,18.40
2017-09-07T14:11:44.691Z,19.40
2017-09-07T14:14:12.212Z,19.30
2017-09-07T14:16:39.734Z,19.40
2017-09-07T14:19:07.258Z,19.50
2017-09-07T14:21:34.760Z,18.70
2017-09-07T14:24:02.288Z,18.00
2017-09-07T14:26:30.928Z,17.70
2017-09-07T14:28:58.453Z,17.80
2017-09-07T14:31:25.961Z,17.60
2017-09-07T14:33:53.480Z,17.60
2017-09-07T14:36:20.983Z,17.90
2017-09-07T14:38:49.279Z,17.80
2017-09-07T14:41:17.558Z,18.00
2017-09-07T14:43:45.873Z,17.90
2017-09-07T14:46:13.392Z,17.50
2017-09-07T14:48:40.905Z,17.30
2017-09-07T14:51:08.440Z,17.20
2017-09-07T14:53:35.957Z,17.40
2017-09-07T14:56:03.489Z,17.30
2017-09-07T14:58:31.001Z,17.50
2017-09-07T15:00:58.529Z,17.80
2017-09-07T15:03:26.056Z,18.50
2017-09-07T15:05:53.575Z,18.50
2017-09-07T15:08:21.844Z,18.60
2017-09-07T15:10:50.146Z,19.70
2017-09-07T15:13:17.660Z,19.70
2017-09-07T15:15:45.179Z,20.10
2017-09-07T15:18:12.684Z,21.00
2017-09-07T15:20:40.976Z,18.30
2017-09-07T15:23:09.270Z,18.00
2017-09-07T15:25:36.795Z,17.50
2017-09-07T15:28:04.313Z,17.70
2017-09-07T15:30:31.840Z,17.70
2017-09-07T15:32:59.344Z,17.70
2017-09-07T15:35:26.877Z,17.80
2017-09-07T15:37:54.393Z,17.50
2017-09-07T15:40:21.933Z,17.80
2017-09-07T15:42:49.444Z,18.00
2017-09-07T15:45:16.987Z,18.00
2017-09-07T15:47:45.293Z,17.40
2017-09-07T15:50:12.800Z,17.30
2017-09-07T15:52:40.328Z,17.40
2017-09-07T15:55:07.828Z,17.40
2017-09-07T15:57:35.349Z,17.20
2017-09-07T16:00:02.866Z,17.20
2017-09-07T16:02:30.404Z,16.90
2017-09-07T16:04:57.925Z,16.90
2017-09-07T16:07:25.466Z,16.90
2017-09-07T16:09:52.977Z,17.30
2017-09-07T16:12:20.510Z,17.50
2017-09-07T16:14:48.030Z,17.30
2017-09-07T16:17:15.559Z,17.30
2017-09-07T16:19:43.072Z,17.20
2017-09-07T16:22:10.605Z,17.30
2017-09-07T16:24:38.881Z,17.50
2017-09-07T16:27:08.293Z,17.40
2017-09-07T16:29:35.799Z,17.30
2017-09-07T16:32:03.326Z,17.30
2017-09-07T16:34:30.837Z,17.40
2017-09-07T16:36:58.356Z,17.50
2017-09-07T16:39:25.865Z,17.70
2017-09-07T16:41:54.169Z,17.70
2017-09-07T16:44:21.680Z,17.70
2017-09-07T16:46:49.204Z,17.70
2017-09-07T16:49:16.717Z,17.80
2017-09-07T16:51:45.004Z,17.70
2017-09-07T16:54:13.276Z,17.80
2017-09-07T16:56:41.565Z,17.70
2017-09-07T16:59:09.837Z,17.60
2017-09-07T17:01:37.360Z,17.60
2017-09-07T17:04:05.268Z,17.20
2017-09-07T17:06:33.572Z,17.30
2017-09-07T17:09:01.090Z,17.20
2017-09-07T17:11:28.628Z,17.30
2017-09-07T17:13:56.170Z,17.10
2017-09-07T17:16:23.676Z,17.40
2017-09-07T17:18:51.201Z,17.20
2017-09-07T17:21:18.704Z,17.10
2017-09-07T17:23:46.996Z,17.20
2017-09-07T17:26:14.521Z,17.10
2017-09-07T17:28:42.044Z,17.20
2017-09-07T17:31:09.549Z,16.80
2017-09-07T17:33:37.067Z,16.50
2017-09-07T17:36:04.577Z,16.50
2017-09-07T17:38:32.875Z,16.80
2017-09-07T17:41:00.396Z,16.80
2017-09-07T17:43:28.053Z,16.70
2017-09-07T17:45:55.568Z,16.70
2017-09-07T17:48:23.102Z,16.40
2017-09-07T17:50:50.612Z,16.50
2017-09-07T17:53:18.142Z,16.20
2017-09-07T17:55:45.644Z,16.50
2017-09-07T17:58:13.203Z,16.50
2017-09-07T18:00:40.717Z,16.20
2017-09-07T18:03:08.224Z,16.60
2017-09-07T18:05:35.749Z,16.50
2017-09-07T18:08:03.278Z,16.10
2017-09-07T18:10:30.827Z,16.40
2017-09-07T18:12:58.362Z,16.30
2017-09-07T18:15:25.888Z,16.20
2017-09-07T18:17:53.434Z,16.00
2017-09-07T18:20:21.004Z,16.20
2017-09-07T18:22:48.508Z,16.30
2017-09-07T18:25:16.041Z,16.10
2017-09-07T18:27:43.558Z,16.20
2017-09-07T18:30:11.092Z,16.10
2017-09-07T18:32:38.614Z,16.20
2017-09-07T18:35:06.131Z,16.20
2017-09-07T18:37:33.640Z,16.30
2017-09-07T18:40:01.159Z,16.30
2017-09-07T18:42:28.660Z,16.20
2017-09-07T18:44:56.176Z,16.10
2017-09-07T18:47:23.680Z,16.20
2017-09-07T18:49:51.231Z,16.00
2017-09-07T18:52:18.754Z,16.20
2017-09-07T18:54:47.038Z,16.20
2017-09-07T18:57:14.568Z,16.20
2017-09-07T18:59:42.074Z,16.20
2017-09-07T19:02:09.602Z,16.30
2017-09-07T19:04:37.121Z,16.20
2017-09-07T19:07:04.648Z,16.10
2017-09-07T19:09:32.160Z,16.30
2017-09-07T19:11:59.684Z,16.30
2017-09-07T19:14:27.233Z,16.20
2017-09-07T19:16:54.761Z,16.20
2017-09-07T19:19:23.044Z,16.20
2017-09-07T19:21:50.582Z,16.20
2017-09-07T19:24:18.867Z,16.20
2017-09-07T19:26:46.394Z,16.00
2017-09-07T19:29:13.904Z,16.10
2017-09-07T19:31:41.442Z,16.00
2017-09-07T19:34:09.726Z,16.20
2017-09-07T19:36:37.877Z,16.20
2017-09-07T19:39:05.390Z,16.10
2017-09-07T19:41:32.914Z,15.90
2017-09-07T19:44:00.424Z,15.90
2017-09-07T19:46:27.984Z,16.00
2017-09-07T19:48:56.264Z,16.20
2017-09-07T19:51:23.777Z,16.20
2017-09-07T19:53:51.313Z,16.20
2017-09-07T19:56:18.820Z,16.10
2017-09-07T19:58:46.354Z,16.10
2017-09-07T20:01:13.856Z,16.00
2017-09-07T20:03:41.388Z,16.20
2017-09-07T20:06:08.900Z,16.10
2017-09-07T20:08:36.452Z,16.40
2017-09-07T20:11:03.976Z,16.00
2017-09-07T20:13:31.500Z,16.00
2017-09-07T20:15:59.791Z,15.70
2017-09-07T20:18:27.316Z,15.70
2017-09-07T20:20:54.823Z,15.80
2017-09-07T20:23:22.351Z,15.60
2017-09-07T20:25:50.643Z,15.70
2017-09-07T20:28:18.149Z,15.60
2017-09-07T20:30:45.674Z,15.90
2017-09-07T20:33:13.187Z,15.90
2017-09-07T20:35:40.708Z,15.70
2017-09-07T20:38:08.216Z,15.80
2017-09-07T20:40:36.513Z,15.50
2017-09-07T20:43:04.024Z,15.50
2017-09-07T20:45:31.550Z,15.50
2017-09-07T20:47:59.052Z,15.50
2017-09-07T20:50:26.571Z,15.50
2017-09-07T20:52:54.085Z,15.30
2017-09-07T20:55:21.608Z,15.40
2017-09-07T20:57:49.120Z,15.20
2017-09-07T21:00:17.413Z,15.20
2017-09-07T21:02:44.929Z,15.20
2017-09-07T21:05:12.456Z,15.30
2017-09-07T21:07:39.960Z,15.50
2017-09-07T21:10:07.484Z,15.60
2017-09-07T21:12:34.997Z,15.60
2017-09-07T21:15:03.284Z,15.60
2017-09-07T21:17:30.792Z,15.60
2017-09-07T21:19:58.320Z,15.50
2017-09-07T21:22:25.828Z,15.40
2017-09-07T21:24:53.360Z,15.30
2017-09-07T21:27:20.856Z,15.40
2017-09-07T21:29:49.143Z,15.30
2017-09-07T21:32:17.424Z,15.40
2017-09-07T21:34:45.716Z,15.40
2017-09-07T21:37:13.228Z,15.30
2017-09-07T21:39:40.764Z,15.30
2017-09-07T21:42:08.276Z,15.20
2017-09-07T21:44:35.861Z,15.20
2017-09-07T21:47:03.373Z,15.10
2017-09-07T21:49:30.917Z,15.40
2017-09-07T21:51:58.430Z,15.40
2017-09-07T21:54:25.946Z,15.30
2017-09-07T21:56:53.467Z,15.30
2017-09-07T21:59:20.997Z,15.10
2017-09-07T22:01:48.515Z,15.10
2017-09-07T22:04:16.028Z,15.20
2017-09-07T22:06:43.551Z,15.30
2017-09-07T22:09:11.058Z,15.00
2017-09-07T22:11:38.588Z,14.90
2017-09-07T22:14:06.860Z,15.00
2017-09-07T22:16:35.156Z,14.90
2017-09-07T22:19:02.677Z,14.80
2017-09-07T22:21:30.211Z,14.70
2017-09-07T22:23:57.720Z,14.70
2017-09-07T22:26:26.013Z,14.80
2017-09-07T22:28:53.520Z,14.70
2017-09-07T22:31:21.049Z,14.70
2017-09-07T22:33:48.557Z,14.60
2017-09-07T22:36:16.088Z,14.40
2017-09-07T22:38:43.603Z,14.50
2017-09-07T22:41:11.889Z,14.40
2017-09-07T22:43:39.392Z,14.40
2017-09-07T22:46:06.901Z,14.40
2017-09-07T22:48:35.199Z,14.40
2017-09-07T22:51:02.708Z,14.30
2017-09-07T22:53:30.223Z,14.40
2017-09-07T22:55:57.724Z,14.40
2017-09-07T22:58:25.257Z,14.40
2017-09-07T23:00:52.772Z,14.40
2017-09-07T23:03:20.296Z,14.40
2017-09-07T23:05:47.795Z,14.40
2017-09-07T23:08:15.324Z,14.30
2017-09-07T23:10:42.841Z,14.30
2017-09-07T23:13:10.370Z,14.30
2017-09-07T23:15:38.858Z,14.30
2017-09-07T23:18:06.411Z,14.20
2017-09-07T23:20:33.933Z,14.30
2017-09-07T23:23:01.465Z,14.30
2017-09-07T23:25:30.659Z,14.20
2017-09-07T23:27:59.061Z,14.20
2017-09-07T23:30:26.792Z,14.20
2017-09-07T23:32:54.749Z,14.10
2017-09-07T23:35:22.256Z,14.10
2017-09-07T23:37:50.596Z,14.00
2017-09-07T23:40:19.004Z,13.80
2017-09-07T23:42:47.413Z,13.70
2017-09-07T23:45:14.930Z,13.70
2017-09-07T23:47:42.721Z,13.60
2017-09-07T23:50:10.245Z,13.60
2017-09-07T23:52:37.817Z,13.70
2017-09-07T23:55:05.884Z,13.50
2017-09-07T23:57:33.455Z,13.50
